Flight Track Log - Related Links

Times and Time Zones

All times are in EDT time to prevent confusion due to time zone crossing. See the SWA3943 flight status page for this flight to view local times or setup timezone preferences in your user account.

Time Position Orientation Groundspeed Altitude Reporting Facility
EDT Latitude Longitude Course Direction KTS MPH feet Rate Location/Type
Fri 06:27:02 PM 33.4969 -86.7639 188° South 189 217 5,800  Level Atlanta Center
Fri 06:28:02 PM 33.4822 -86.6764 101° East 188 216 8,500 2,100 Climbing Atlanta Center
Fri 06:29:02 PM 33.4678 -86.5714 99° East 248 285 10,000 750 Climbing Atlanta Center
Fri 06:30:02 PM 33.4511 -86.4564 100° East 307 353 10,000 600 Level Atlanta Center
Fri 06:31:02 PM 33.4369 -86.3314 98° East 332 382 11,200 2,150 Climbing Atlanta Center
Fri 06:32:02 PM 33.4494 -86.2072 83° East 346 398 14,300 2,950 Climbing Atlanta Center
Fri 06:33:02 PM 33.4644 -86.0733 82° East 380 437 17,100 2,850 Climbing Atlanta Center
Fri 06:34:02 PM 33.4792 -85.9292 83° East 409 471 20,000 1,950 Climbing Atlanta Center
Fri 06:35:02 PM 33.4914 -85.8147 83° East 424 488 21,000 950 Climbing Atlanta Center
Fri 06:36:02 PM 33.5122 -85.6558 81° East 432 497 21,900 1,600 Climbing Atlanta Center
Fri 06:37:02 PM 33.5267 -85.5017 84° East 450 518 24,200 2,250 Climbing Atlanta Center
Fri 06:38:02 PM 33.5411 -85.3422 84° East 472 543 26,400 2,050 Climbing Atlanta Center
Fri 06:39:02 PM 33.5572 -85.1781 83° East 491 565 28,300 1,900 Climbing Atlanta Center
Fri 06:40:02 PM 33.5733 -85.0086 83° East 505 581 30,200 1,350 Climbing Atlanta Center
Fri 06:41:02 PM 33.5914 -84.8367 83° East 519 597 31,000 450 Climbing Atlanta Center
Fri 06:42:02 PM 33.6089 -84.6625 83° East 519 597 31,100 1,050 Climbing Atlanta Center
Fri 06:43:02 PM 33.6264 -84.4728 84° East 519 597 33,100 1,900 Climbing Atlanta Center
Fri 06:44:02 PM 33.6353 -84.2983 86° East 519 597 34,900 1,600 Climbing Atlanta Center
Fri 06:45:02 PM 33.6606 -84.1411 79° East 524 603 36,300 1,100 Climbing Atlanta Center
Fri 06:46:02 PM 33.7503 -83.9964 53° Northeast 521 600 37,100 900 Climbing Atlanta Center
Fri 06:47:02 PM 33.8442 -83.8461 53° Northeast 549 632 38,100 942 Climbing Atlanta Center
Fri 06:48:03 PM 33.9461 -83.6858 52° Northeast 549 632 39,000 450 Climbing Atlanta Center
Fri 06:49:02 PM 34.0375 -83.5400 53° Northeast 549 632 39,000  Level Atlanta Center
Fri 06:50:02 PM 34.1306 -83.3989 51° Northeast 549 632 39,000  Level Atlanta Center
Fri 06:51:02 PM 34.2217 -83.2500 53° Northeast 549 632 39,000  Level Atlanta Center
Fri 06:52:02 PM 34.3103 -83.1058 53° Northeast 544 626 39,000  Level Atlanta Center
Fri 06:53:02 PM 34.4011 -82.9589 53° Northeast 544 626 39,000  Level Atlanta Center
Fri 06:54:02 PM 34.4894 -82.8139 54° Northeast 538 619 39,000  Level Atlanta Center
Fri 06:55:02 PM 34.5797 -82.6639 54° Northeast 533 613 39,000  Level Atlanta Center
Fri 06:56:02 PM 34.6697 -82.5258 52° Northeast 533 613 39,000  Level Atlanta Center
Fri 06:57:02 PM 34.7597 -82.3803 53° Northeast 533 613 39,000  Level Atlanta Center
Fri 06:58:02 PM 34.8433 -82.2419 54° Northeast 543 625 39,000  Level Atlanta Center
Fri 06:59:02 PM 34.9331 -82.0981 53° Northeast 543 625 39,000  Level Atlanta Center
Fri 07:00:02 PM 35.0225 -81.9489 54° Northeast 538 619 39,000  Level Atlanta Center
Fri 07:01:02 PM 35.1053 -81.7944 57° Northeast 543 625 39,000  Level Atlanta Center
Fri 07:02:02 PM 35.1958 -81.6267 57° Northeast 543 625 39,000  Level Atlanta Center
Fri 07:03:02 PM 35.2761 -81.4692 58° Northeast 538 619 39,000  Level Atlanta Center
Fri 07:04:02 PM 35.3561 -81.3114 58° Northeast 538 619 39,000  Level Atlanta Center
Fri 07:05:02 PM 35.4361 -81.1558 58° Northeast 538 619 39,000  Level Atlanta Center
Fri 07:06:02 PM 35.5119 -81.0103 57° Northeast 551 634 39,000  Level Atlanta Center
Fri 07:07:02 PM 35.5936 -80.8567 57° Northeast 551 634 39,000  Level Atlanta Center
Fri 07:08:02 PM 35.6808 -80.6897 57° Northeast 539 620 39,000  Level Atlanta Center
Fri 07:09:02 PM 35.7600 -80.5353 58° Northeast 539 620 39,000  Level Atlanta Center
Fri 07:10:49 PM 35.9022 -80.2564 58° Northeast 530 610 39,000  Level Washington Center
Fri 07:11:49 PM 35.9744 -80.1169 57° Northeast 535 616 39,000  Level Washington Center
Fri 07:12:49 PM 36.0622 -79.9497 57° Northeast 527 606 39,000 -500 Level Washington Center
Fri 07:13:49 PM 36.1489 -79.8003 54° Northeast 532 612 38,000 -1,000 Descending Washington Center
Fri 07:14:49 PM 36.2336 -79.6453 56° Northeast 539 620 37,000 -950 Descending Washington Center
Fri 07:15:49 PM 36.3178 -79.4950 55° Northeast 531 611 36,100 -900 Descending Washington Center
Fri 07:16:49 PM 36.4042 -79.3392 55° Northeast 539 620 35,200 -900 Descending Washington Center
Fri 07:17:49 PM 36.4836 -79.1958 55° Northeast 549 632 34,300 -1,250 Descending Washington Center
Fri 07:18:49 PM 36.5844 -79.0297 53° Northeast 549 632 32,700 -1,850 Descending Washington Center
Fri 07:19:49 PM 36.6528 -78.9033 56° Northeast 549 632 30,600 -1,850 Descending Washington Center
Fri 07:20:49 PM 36.7494 -78.7181 57° Northeast 538 619 29,000 -800 Descending Washington Center
Fri 07:21:49 PM 36.8325 -78.5708 55° Northeast 522 601 29,000 -300 Level Washington Center
Fri 07:22:49 PM 36.9067 -78.4389 55° Northeast 510 587 28,400 -850 Descending Washington Center
Fri 07:23:49 PM 36.9875 -78.2858 56° Northeast 519 597 27,300 -950 Descending Washington Center
Fri 07:24:49 PM 37.0678 -78.1375 56° Northeast 519 597 26,500 -1,000 Descending Washington Center
Fri 07:25:49 PM 37.1547 -77.9764 56° Northeast 514 592 25,300 -1,100 Descending Washington Center
Fri 07:26:49 PM 37.2650 -77.8753 36° Northeast 491 565 24,300 -1,000 Descending Washington Center
Fri 07:27:49 PM 37.3814 -77.7978 28° Northeast 480 552 23,300 -650 Descending Washington Center
Fri 07:28:49 PM 37.4972 -77.7225 27° Northeast 470 541 23,000 -150 Descending Washington Center
Fri 07:29:49 PM 37.6092 -77.6469 28° Northeast 465 535 23,000  Level Washington Center
Fri 07:30:49 PM 37.7272 -77.5742 26° Northeast 460 529 23,000  Level Washington Center
Fri 07:31:49 PM 37.8264 -77.5058 29° Northeast 455 524 23,000 -100 Level Washington Center
Fri 07:32:49 PM 37.9381 -77.4322 27° Northeast 455 524 22,800 -950 Descending Washington Center
Fri 07:33:49 PM 38.0392 -77.3661 27° Northeast 424 488 21,100 -1,700 Descending Washington Center
Fri 07:34:49 PM 38.1361 -77.3025 27° Northeast 408 470 19,400 -1,850 Descending Washington Center
Fri 07:35:49 PM 38.2186 -77.2172 39° Northeast 398 458 17,400 -1,450 Descending Washington Center
Fri 07:36:49 PM 38.1633 -77.1286 128° Southeast 194 223 16,500 -950 Descending Washington Center
Fri 07:37:49 PM 38.0864 -77.1114 170° South 183 211 15,500 -750 Descending Washington Center
Fri 07:38:49 PM 38.0278 -77.1364 199° South 182 209 15,000 -250 Descending Washington Center
Fri 07:39:49 PM 38.0708 -77.1875 317° Northwest 85 98 15,000 900 Level Washington Center
Fri 07:40:49 PM 38.0928 -77.2592 291° West 154 177 16,800 1,000 Climbing Washington Center
Fri 07:41:49 PM 38.0875 -77.3331 265° West 194 223 17,000 100 Climbing Washington Center
Fri 07:42:49 PM 38.0411 -77.3714 213° Southwest 194 223 17,000  Level Washington Center
Fri 07:43:49 PM 37.9742 -77.3831 188° South 188 216 17,000  Level Washington Center
Fri 07:44:49 PM 37.9119 -77.3658 168° South 205 236 17,000  Level Washington Center
Fri 07:45:49 PM 37.8989 -77.2656 99° East 203 234 17,000 -650 Level Washington Center
Fri 07:46:49 PM 37.9892 -77.2175 23° Northeast 203 234 15,700 -1,000 Descending Washington Center
Fri 07:47:49 PM 38.0811 -77.2008 North 265 305 15,000 -350 Descending Washington Center
Fri 07:48:49 PM 38.1772 -77.1792 10° North 310 357 15,000  Level Washington Center
Fri 07:49:49 PM 38.2839 -77.1578 North 343 395 15,000  Level Washington Center
Fri 07:50:49 PM 38.3697 -77.1383 10° North 350 403 15,000 -800 Level Washington Center
Fri 07:51:49 PM 38.4500 -77.0578 38° Northeast 349 402 13,400 -1,500 Descending Washington Center
Fri 07:52:49 PM 38.5239 -76.9689 43° Northeast 355 409 12,000 -950 Descending Washington Center
Fri 07:53:49 PM 38.5917 -76.8853 44° Northeast 350 403 11,500 -1,050 Descending Washington Center
Fri 07:54:49 PM 38.6614 -76.8014 43° Northeast 339 390 9,900 -1,350 Descending Washington Center
Fri 07:55:49 PM 38.7206 -76.7144 49° Northeast 326 375 8,800 -1,350 Descending Washington Center
Fri 07:56:49 PM 38.7631 -76.6167 61° Northeast 315 362 7,200 -1,570 Descending Washington Center
Fri 07:57:36 PM 38.8167 -76.5333 50° Northeast 307 353 6,000 -1,009 Descending Potomac TRACON
Fri 07:58:36 PM 38.8833 -76.5500 349° North 233 268 5,400 -850 Descending Potomac TRACON
Fri 07:59:36 PM 38.9333 -76.5833 333° Northwest 232 267 4,300 -700 Descending Potomac TRACON
Fri 08:00:36 PM 38.9833 -76.6167 333° Northwest 199 229 4,000 -150 Descending Potomac TRACON
Fri 08:01:36 PM 39.0000 -76.6667 293° West 181 208 4,000  Level Potomac TRACON
Fri 08:02:37 PM 39.0333 -76.7333 303° West 183 211 4,000  Level Potomac TRACON
Fri 08:03:37 PM 39.0500 -76.7833 293° West 186 214 4,000  Level Potomac TRACON
Fri 08:04:37 PM 39.0833 -76.8500 303° West 182 209 4,000  Level Potomac TRACON
Fri 08:05:31 PM 39.1000 -76.9000 293° West 183 211 4,000  Level Potomac TRACON
Fri 08:06:31 PM 39.1167 -76.9667 288° West 182 209 4,000 -429 Level Potomac TRACON
Fri 08:07:37 PM 39.1667 -76.9833 346° North 202 232 3,100 -850 Descending Potomac TRACON
Fri 08:08:38 PM 39.1833 -76.9167 72° East 196 226 2,200 -574 Descending Potomac TRACON
Fri 08:09:32 PM 39.1833 -76.8500 90° East 185 213 2,000 -347 Descending Potomac TRACON
Fri 08:10:39 PM 39.1833 -76.7833 90° East 170 196 1,500 -545 Descending Potomac TRACON
Fri 08:11:33 PM 39.1833 -76.7333 90° East 135 155 900 -667 Descending Potomac TRACON

Login

Don't have an account? Register now (free) for customized features, flight alerts, and more!